ETHN

Details ICAO ETHN
Name NIEDERSTETTEN
Region Germany - Military
Timezone Europe/Berlin (UTC+1.0)
Plans Departing 3
Arriving 2
Stats Elevation 1,536 ft / 468 m (AMSL)
Location 49.391833° 9.958167°
Runways 1
Magnetic Variation 2.725° E
Sunrise 2017-12-18 07:12:55 UTC / 2017-12-18 08:12:55 Local
Sunset 2017-12-18 15:23:20 UTC / 2017-12-18 16:23:20 Local
Advertisement - Login to hide

Runways

ID Width Length Bearing (true) Bearing (mag) Surface Threshold Offset Overrun Length
07 98 ft / 30 m 3,279 ft / 1,000 m 74.95° 72.23° Asphalt 0 ft / 0 m 0 ft / 0 m
25 98 ft / 30 m 3,279 ft / 1,000 m 254.96° 252.24° Asphalt 0 ft / 0 m 390 ft / 119 m

Approach Navaids

Runway Type Ident Frequency Range Bearing (true) Bearing (mag) Slope Elevation
25 Localiser INSW 108.90 MHz 18 nm / 33 km 255.30° 252.57° - 1,541 ft / 470 m (AMSL)
25 Glidescope INSW 108.90 MHz 10 nm / 19 km 254.95° 252.23° 3.40° 1,551 ft / 473 m (AMSL)

Map

Weather


0- 5 10 15 20 25 30 35+ Temperature / ° C

Clouds and Precipitation
Forecast for 2017-12-19 00:00 UTC. Updated an hour ago

Ground ~20,000 ft ~40,000 ft Winds

METAR

ETHN 182120Z 10004KT 9000 SCT027 M04/M05 Q1027 BLU+

TAF

Not found

Frequencies

Tower 122.10 MHz STETTEN TWR
Approach 135.60 MHz STETTEN RADAR
Approach 123.30 MHz STETTEN RADAR
Warning: Do not use this data for real-world aviation or navigation. No guarantee of current accuracy is given.